sensor_id;sensor_type;location;lat;lon;timestamp;P1;durP1;ratioP1;P2;durP2;ratioP2
59872;SDS011;50750;51.636;4.948;2022-10-26T00:01:50;2.70;;;1.20;;
59872;SDS011;50750;51.636;4.948;2022-10-26T00:04:16;2.90;;;1.10;;
59872;SDS011;50750;51.636;4.948;2022-10-26T00:06:43;1.90;;;1.10;;
59872;SDS011;50750;51.636;4.948;2022-10-26T00:09:09;2.80;;;1.40;;
59872;SDS011;50750;51.636;4.948;2022-10-26T00:11:36;2.40;;;1.30;;
59872;SDS011;50750;51.636;4.948;2022-10-26T00:14:02;2.20;;;1.20;;
59872;SDS011;50750;51.636;4.948;2022-10-26T00:16:28;2.90;;;1.20;;
59872;SDS011;50750;51.636;4.948;2022-10-26T00:18:55;2.10;;;1.20;;
59872;SDS011;50750;51.636;4.948;2022-10-26T00:21:21;2.60;;;1.30;;
59872;SDS011;50750;51.636;4.948;2022-10-26T00:23:48;3.50;;;1.30;;
59872;SDS011;50750;51.636;4.948;2022-10-26T00:26:16;2.30;;;1.20;;
59872;SDS011;50750;51.636;4.948;2022-10-26T00:28:43;2.60;;;1.10;;
59872;SDS011;50750;51.636;4.948;2022-10-26T00:31:13;2.10;;;1.20;;
59872;SDS011;50750;51.636;4.948;2022-10-26T00:33:40;2.20;;;1.20;;
59872;SDS011;50750;51.636;4.948;2022-10-26T00:36:07;2.00;;;0.90;;
59872;SDS011;50750;51.636;4.948;2022-10-26T00:38:35;2.00;;;1.10;;
59872;SDS011;50750;51.636;4.948;2022-10-26T00:41:02;2.50;;;1.20;;
59872;SDS011;50750;51.636;4.948;2022-10-26T00:45:56;3.10;;;1.60;;
59872;SDS011;50750;51.636;4.948;2022-10-26T00:48:24;2.60;;;1.20;;
59872;SDS011;50750;51.636;4.948;2022-10-26T00:50:55;2.50;;;1.30;;
59872;SDS011;50750;51.636;4.948;2022-10-26T00:53:25;1.60;;;1.10;;
59872;SDS011;50750;51.636;4.948;2022-10-26T00:55:52;2.30;;;1.10;;
59872;SDS011;50750;51.636;4.948;2022-10-26T00:58:19;2.80;;;1.20;;
59872;SDS011;50750;51.636;4.948;2022-10-26T01:00:50;2.10;;;1.20;;
59872;SDS011;50750;51.636;4.948;2022-10-26T01:03:17;2.00;;;1.00;;
59872;SDS011;50750;51.636;4.948;2022-10-26T01:05:44;2.00;;;1.10;;
59872;SDS011;50750;51.636;4.948;2022-10-26T01:08:13;3.70;;;1.50;;
59872;SDS011;50750;51.636;4.948;2022-10-26T01:10:41;2.40;;;1.20;;
59872;SDS011;50750;51.636;4.948;2022-10-26T01:13:08;2.90;;;1.30;;
59872;SDS011;50750;51.636;4.948;2022-10-26T01:18:20;2.70;;;1.30;;
59872;SDS011;50750;51.636;4.948;2022-10-26T01:21:07;2.80;;;1.30;;
59872;SDS011;50750;51.636;4.948;2022-10-26T01:26:50;2.60;;;1.20;;
59872;SDS011;50750;51.636;4.948;2022-10-26T01:32:28;2.50;;;1.00;;
59872;SDS011;50750;51.636;4.948;2022-10-26T01:35:02;2.50;;;1.10;;
59872;SDS011;50750;51.636;4.948;2022-10-26T01:37:37;3.00;;;1.30;;
59872;SDS011;50750;51.636;4.948;2022-10-26T01:40:24;2.70;;;1.20;;
59872;SDS011;50750;51.636;4.948;2022-10-26T01:42:56;1.90;;;1.10;;
59872;SDS011;50750;51.636;4.948;2022-10-26T01:45:26;2.30;;;1.10;;
59872;SDS011;50750;51.636;4.948;2022-10-26T01:47:54;3.20;;;1.30;;
59872;SDS011;50750;51.636;4.948;2022-10-26T01:50:24;2.60;;;1.20;;
59872;SDS011;50750;51.636;4.948;2022-10-26T01:52:52;2.90;;;1.20;;
59872;SDS011;50750;51.636;4.948;2022-10-26T01:58:10;3.90;;;1.40;;
59872;SDS011;50750;51.636;4.948;2022-10-26T02:01:13;3.10;;;1.30;;
59872;SDS011;50750;51.636;4.948;2022-10-26T02:15:22;4.80;;;1.30;;
59872;SDS011;50750;51.636;4.948;2022-10-26T02:18:08;2.00;;;1.10;;
59872;SDS011;50750;51.636;4.948;2022-10-26T02:20:47;2.40;;;1.20;;
59872;SDS011;50750;51.636;4.948;2022-10-26T02:23:18;2.50;;;1.20;;
59872;SDS011;50750;51.636;4.948;2022-10-26T02:25:49;2.10;;;1.00;;
59872;SDS011;50750;51.636;4.948;2022-10-26T02:28:32;2.30;;;1.20;;
59872;SDS011;50750;51.636;4.948;2022-10-26T02:31:04;2.10;;;1.20;;
59872;SDS011;50750;51.636;4.948;2022-10-26T02:33:34;2.60;;;1.30;;
59872;SDS011;50750;51.636;4.948;2022-10-26T02:36:07;3.30;;;1.40;;
59872;SDS011;50750;51.636;4.948;2022-10-26T02:38:36;2.60;;;1.30;;
59872;SDS011;50750;51.636;4.948;2022-10-26T02:41:06;2.60;;;1.20;;
59872;SDS011;50750;51.636;4.948;2022-10-26T02:43:35;1.80;;;1.10;;
59872;SDS011;50750;51.636;4.948;2022-10-26T02:46:11;2.80;;;1.30;;
59872;SDS011;50750;51.636;4.948;2022-10-26T02:48:42;2.80;;;1.10;;
59872;SDS011;50750;51.636;4.948;2022-10-26T02:51:19;2.70;;;1.20;;
59872;SDS011;50750;51.636;4.948;2022-10-26T02:54:00;2.40;;;1.10;;
59872;SDS011;50750;51.636;4.948;2022-10-26T03:01:36;4.20;;;1.30;;
59872;SDS011;50750;51.636;4.948;2022-10-26T03:04:03;2.40;;;1.20;;
59872;SDS011;50750;51.636;4.948;2022-10-26T03:06:29;2.10;;;1.20;;
59872;SDS011;50750;51.636;4.948;2022-10-26T03:08:56;2.40;;;1.30;;
59872;SDS011;50750;51.636;4.948;2022-10-26T03:11:23;2.90;;;1.20;;
59872;SDS011;50750;51.636;4.948;2022-10-26T03:13:49;1.80;;;1.10;;
59872;SDS011;50750;51.636;4.948;2022-10-26T03:16:15;2.30;;;1.10;;
59872;SDS011;50750;51.636;4.948;2022-10-26T03:18:42;2.00;;;0.90;;
59872;SDS011;50750;51.636;4.948;2022-10-26T03:21:08;2.40;;;1.10;;
59872;SDS011;50750;51.636;4.948;2022-10-26T03:23:35;3.10;;;1.10;;
59872;SDS011;50750;51.636;4.948;2022-10-26T03:26:01;2.40;;;1.40;;
59872;SDS011;50750;51.636;4.948;2022-10-26T03:28:28;2.50;;;1.20;;
59872;SDS011;50750;51.636;4.948;2022-10-26T03:30:54;2.20;;;1.20;;
59872;SDS011;50750;51.636;4.948;2022-10-26T03:33:20;2.40;;;1.20;;
59872;SDS011;50750;51.636;4.948;2022-10-26T03:35:52;2.40;;;1.20;;
59872;SDS011;50750;51.636;4.948;2022-10-26T03:38:20;3.30;;;1.20;;
59872;SDS011;50750;51.636;4.948;2022-10-26T03:40:47;2.10;;;1.10;;
59872;SDS011;50750;51.636;4.948;2022-10-26T03:43:14;2.30;;;1.10;;
59872;SDS011;50750;51.636;4.948;2022-10-26T03:45:40;2.20;;;1.10;;
59872;SDS011;50750;51.636;4.948;2022-10-26T03:48:06;2.50;;;1.10;;
59872;SDS011;50750;51.636;4.948;2022-10-26T03:50:33;1.90;;;1.10;;
59872;SDS011;50750;51.636;4.948;2022-10-26T03:52:59;2.20;;;1.20;;
59872;SDS011;50750;51.636;4.948;2022-10-26T03:55:26;2.50;;;1.20;;
59872;SDS011;50750;51.636;4.948;2022-10-26T03:57:52;2.40;;;1.20;;
59872;SDS011;50750;51.636;4.948;2022-10-26T04:00:18;2.00;;;1.10;;
59872;SDS011;50750;51.636;4.948;2022-10-26T04:02:45;2.80;;;1.30;;
59872;SDS011;50750;51.636;4.948;2022-10-26T04:05:22;1.70;;;1.00;;
59872;SDS011;50750;51.636;4.948;2022-10-26T04:07:56;1.70;;;1.00;;
59872;SDS011;50750;51.636;4.948;2022-10-26T04:10:25;2.10;;;1.10;;
59872;SDS011;50750;51.636;4.948;2022-10-26T04:12:53;2.00;;;1.10;;
59872;SDS011;50750;51.636;4.948;2022-10-26T04:15:20;2.00;;;1.20;;
59872;SDS011;50750;51.636;4.948;2022-10-26T04:17:47;2.40;;;1.40;;
59872;SDS011;50750;51.636;4.948;2022-10-26T04:20:13;2.30;;;1.00;;
59872;SDS011;50750;51.636;4.948;2022-10-26T04:22:40;2.20;;;1.00;;
59872;SDS011;50750;51.636;4.948;2022-10-26T04:25:07;2.20;;;1.20;;
59872;SDS011;50750;51.636;4.948;2022-10-26T04:27:34;3.60;;;1.30;;
59872;SDS011;50750;51.636;4.948;2022-10-26T04:30:00;2.90;;;1.20;;
59872;SDS011;50750;51.636;4.948;2022-10-26T04:32:27;2.50;;;1.00;;
59872;SDS011;50750;51.636;4.948;2022-10-26T04:34:53;2.30;;;1.10;;
59872;SDS011;50750;51.636;4.948;2022-10-26T04:37:20;2.00;;;1.10;;
59872;SDS011;50750;51.636;4.948;2022-10-26T04:39:46;2.10;;;1.10;;
59872;SDS011;50750;51.636;4.948;2022-10-26T04:42:13;2.30;;;1.10;;
59872;SDS011;50750;51.636;4.948;2022-10-26T04:44:39;3.00;;;1.20;;
59872;SDS011;50750;51.636;4.948;2022-10-26T04:47:06;2.40;;;1.10;;
59872;SDS011;50750;51.636;4.948;2022-10-26T04:49:32;2.30;;;1.20;;
59872;SDS011;50750;51.636;4.948;2022-10-26T04:51:58;1.80;;;1.00;;
59872;SDS011;50750;51.636;4.948;2022-10-26T04:54:25;2.10;;;1.00;;
59872;SDS011;50750;51.636;4.948;2022-10-26T04:56:51;1.80;;;1.00;;
59872;SDS011;50750;51.636;4.948;2022-10-26T04:59:18;2.40;;;1.10;;
59872;SDS011;50750;51.636;4.948;2022-10-26T05:01:44;2.10;;;1.20;;
59872;SDS011;50750;51.636;4.948;2022-10-26T05:04:10;2.30;;;1.10;;
59872;SDS011;50750;51.636;4.948;2022-10-26T05:06:38;2.30;;;0.90;;
59872;SDS011;50750;51.636;4.948;2022-10-26T05:09:04;2.50;;;1.10;;
59872;SDS011;50750;51.636;4.948;2022-10-26T05:11:30;1.80;;;0.90;;
59872;SDS011;50750;51.636;4.948;2022-10-26T05:13:57;2.40;;;1.00;;
59872;SDS011;50750;51.636;4.948;2022-10-26T05:16:23;2.00;;;1.00;;
59872;SDS011;50750;51.636;4.948;2022-10-26T05:18:50;2.40;;;1.10;;
59872;SDS011;50750;51.636;4.948;2022-10-26T05:21:16;2.70;;;1.10;;
59872;SDS011;50750;51.636;4.948;2022-10-26T05:23:51;1.90;;;0.90;;
59872;SDS011;50750;51.636;4.948;2022-10-26T05:26:21;2.20;;;1.00;;
59872;SDS011;50750;51.636;4.948;2022-10-26T05:28:48;2.20;;;1.20;;
59872;SDS011;50750;51.636;4.948;2022-10-26T05:31:15;2.30;;;1.10;;
59872;SDS011;50750;51.636;4.948;2022-10-26T05:33:41;1.90;;;1.00;;
59872;SDS011;50750;51.636;4.948;2022-10-26T05:36:07;3.40;;;0.90;;
59872;SDS011;50750;51.636;4.948;2022-10-26T05:38:34;2.10;;;0.90;;
59872;SDS011;50750;51.636;4.948;2022-10-26T05:41:00;2.90;;;1.00;;
59872;SDS011;50750;51.636;4.948;2022-10-26T05:43:27;2.10;;;0.90;;
59872;SDS011;50750;51.636;4.948;2022-10-26T05:45:53;2.20;;;1.10;;
59872;SDS011;50750;51.636;4.948;2022-10-26T05:48:20;2.50;;;1.20;;
59872;SDS011;50750;51.636;4.948;2022-10-26T05:50:46;2.20;;;1.00;;
59872;SDS011;50750;51.636;4.948;2022-10-26T05:53:13;1.90;;;1.00;;
59872;SDS011;50750;51.636;4.948;2022-10-26T05:55:39;1.70;;;1.00;;
59872;SDS011;50750;51.636;4.948;2022-10-26T05:58:13;2.40;;;1.10;;
59872;SDS011;50750;51.636;4.948;2022-10-26T06:00:48;1.40;;;0.90;;
59872;SDS011;50750;51.636;4.948;2022-10-26T06:06:29;1.70;;;1.00;;
59872;SDS011;50750;51.636;4.948;2022-10-26T06:09:08;1.50;;;0.80;;
59872;SDS011;50750;51.636;4.948;2022-10-26T06:14:03;1.50;;;0.90;;
59872;SDS011;50750;51.636;4.948;2022-10-26T06:16:33;2.20;;;1.10;;
59872;SDS011;50750;51.636;4.948;2022-10-26T06:19:12;2.30;;;1.10;;
59872;SDS011;50750;51.636;4.948;2022-10-26T06:21:52;2.60;;;1.20;;
59872;SDS011;50750;51.636;4.948;2022-10-26T06:24:39;2.20;;;0.90;;
59872;SDS011;50750;51.636;4.948;2022-10-26T06:32:26;2.20;;;0.90;;
59872;SDS011;50750;51.636;4.948;2022-10-26T06:34:57;2.10;;;1.00;;
59872;SDS011;50750;51.636;4.948;2022-10-26T06:37:36;1.80;;;0.90;;
59872;SDS011;50750;51.636;4.948;2022-10-26T06:40:05;3.40;;;1.20;;
59872;SDS011;50750;51.636;4.948;2022-10-26T06:42:32;2.50;;;1.30;;
59872;SDS011;50750;51.636;4.948;2022-10-26T06:44:59;2.20;;;1.10;;
59872;SDS011;50750;51.636;4.948;2022-10-26T06:52:41;2.20;;;1.00;;
59872;SDS011;50750;51.636;4.948;2022-10-26T06:55:14;1.60;;;1.00;;
59872;SDS011;50750;51.636;4.948;2022-10-26T06:57:42;2.50;;;1.00;;
59872;SDS011;50750;51.636;4.948;2022-10-26T07:00:17;2.40;;;1.00;;
59872;SDS011;50750;51.636;4.948;2022-10-26T07:02:46;1.90;;;1.00;;
59872;SDS011;50750;51.636;4.948;2022-10-26T07:05:13;2.20;;;1.20;;
59872;SDS011;50750;51.636;4.948;2022-10-26T07:07:40;2.30;;;1.00;;
59872;SDS011;50750;51.636;4.948;2022-10-26T07:10:11;1.80;;;0.90;;
59872;SDS011;50750;51.636;4.948;2022-10-26T07:12:39;3.20;;;1.20;;
59872;SDS011;50750;51.636;4.948;2022-10-26T07:15:06;1.80;;;1.00;;
59872;SDS011;50750;51.636;4.948;2022-10-26T07:17:42;2.00;;;0.90;;
59872;SDS011;50750;51.636;4.948;2022-10-26T07:20:11;1.90;;;0.90;;
59872;SDS011;50750;51.636;4.948;2022-10-26T07:22:38;2.20;;;1.00;;
59872;SDS011;50750;51.636;4.948;2022-10-26T07:25:04;1.70;;;1.00;;
59872;SDS011;50750;51.636;4.948;2022-10-26T07:27:33;1.40;;;0.90;;
59872;SDS011;50750;51.636;4.948;2022-10-26T07:30:00;1.50;;;0.80;;
59872;SDS011;50750;51.636;4.948;2022-10-26T07:32:27;2.10;;;1.10;;
59872;SDS011;50750;51.636;4.948;2022-10-26T07:34:55;3.00;;;0.90;;
59872;SDS011;50750;51.636;4.948;2022-10-26T07:37:21;2.40;;;0.90;;
59872;SDS011;50750;51.636;4.948;2022-10-26T07:39:48;1.60;;;0.90;;
59872;SDS011;50750;51.636;4.948;2022-10-26T07:42:14;1.90;;;0.90;;
59872;SDS011;50750;51.636;4.948;2022-10-26T07:44:41;2.10;;;1.00;;
59872;SDS011;50750;51.636;4.948;2022-10-26T07:47:07;1.70;;;0.80;;
59872;SDS011;50750;51.636;4.948;2022-10-26T07:49:34;2.50;;;1.10;;
59872;SDS011;50750;51.636;4.948;2022-10-26T07:52:00;1.70;;;1.00;;
59872;SDS011;50750;51.636;4.948;2022-10-26T07:54:27;2.60;;;1.20;;
59872;SDS011;50750;51.636;4.948;2022-10-26T07:56:53;2.40;;;1.10;;
59872;SDS011;50750;51.636;4.948;2022-10-26T07:59:20;1.80;;;1.00;;
59872;SDS011;50750;51.636;4.948;2022-10-26T08:01:46;1.70;;;0.90;;
59872;SDS011;50750;51.636;4.948;2022-10-26T08:04:13;1.90;;;1.00;;
59872;SDS011;50750;51.636;4.948;2022-10-26T08:06:40;1.90;;;1.00;;
59872;SDS011;50750;51.636;4.948;2022-10-26T08:09:06;2.40;;;1.00;;
59872;SDS011;50750;51.636;4.948;2022-10-26T08:11:33;1.90;;;1.00;;
59872;SDS011;50750;51.636;4.948;2022-10-26T08:14:02;1.60;;;0.90;;
59872;SDS011;50750;51.636;4.948;2022-10-26T08:16:29;2.00;;;0.90;;
59872;SDS011;50750;51.636;4.948;2022-10-26T08:18:56;2.00;;;0.90;;
59872;SDS011;50750;51.636;4.948;2022-10-26T08:21:22;2.20;;;1.00;;
59872;SDS011;50750;51.636;4.948;2022-10-26T08:23:49;2.00;;;0.90;;
59872;SDS011;50750;51.636;4.948;2022-10-26T08:26:15;2.00;;;1.10;;
59872;SDS011;50750;51.636;4.948;2022-10-26T08:28:46;1.70;;;1.00;;
59872;SDS011;50750;51.636;4.948;2022-10-26T08:31:14;1.60;;;0.90;;
59872;SDS011;50750;51.636;4.948;2022-10-26T08:33:40;1.50;;;0.90;;
59872;SDS011;50750;51.636;4.948;2022-10-26T08:36:07;1.90;;;0.90;;
59872;SDS011;50750;51.636;4.948;2022-10-26T08:38:33;1.60;;;0.80;;
59872;SDS011;50750;51.636;4.948;2022-10-26T08:41:04;1.70;;;0.80;;
59872;SDS011;50750;51.636;4.948;2022-10-26T08:43:41;1.50;;;0.80;;
59872;SDS011;50750;51.636;4.948;2022-10-26T08:46:23;2.30;;;1.00;;
59872;SDS011;50750;51.636;4.948;2022-10-26T08:48:53;2.20;;;1.00;;
59872;SDS011;50750;51.636;4.948;2022-10-26T08:51:25;2.50;;;0.90;;
59872;SDS011;50750;51.636;4.948;2022-10-26T08:54:02;1.70;;;0.90;;
59872;SDS011;50750;51.636;4.948;2022-10-26T08:56:40;1.80;;;0.90;;
59872;SDS011;50750;51.636;4.948;2022-10-26T09:01:50;2.60;;;0.90;;
59872;SDS011;50750;51.636;4.948;2022-10-26T09:04:16;1.40;;;0.70;;
59872;SDS011;50750;51.636;4.948;2022-10-26T09:06:51;1.90;;;1.00;;
59872;SDS011;50750;51.636;4.948;2022-10-26T09:09:27;1.90;;;0.90;;
59872;SDS011;50750;51.636;4.948;2022-10-26T09:25:36;1.80;;;0.90;;
59872;SDS011;50750;51.636;4.948;2022-10-26T09:28:06;2.00;;;1.00;;
59872;SDS011;50750;51.636;4.948;2022-10-26T09:30:42;2.50;;;1.00;;
59872;SDS011;50750;51.636;4.948;2022-10-26T09:38:20;2.10;;;1.00;;
59872;SDS011;50750;51.636;4.948;2022-10-26T09:43:35;2.60;;;1.00;;
59872;SDS011;50750;51.636;4.948;2022-10-26T09:46:12;1.70;;;0.80;;
59872;SDS011;50750;51.636;4.948;2022-10-26T09:48:51;1.80;;;1.00;;
59872;SDS011;50750;51.636;4.948;2022-10-26T09:51:23;1.50;;;0.90;;
59872;SDS011;50750;51.636;4.948;2022-10-26T09:53:52;2.60;;;1.10;;
59872;SDS011;50750;51.636;4.948;2022-10-26T09:56:21;1.90;;;0.90;;
59872;SDS011;50750;51.636;4.948;2022-10-26T10:01:29;2.60;;;1.00;;
59872;SDS011;50750;51.636;4.948;2022-10-26T10:06:33;2.40;;;1.10;;
59872;SDS011;50750;51.636;4.948;2022-10-26T10:09:04;2.80;;;1.00;;
59872;SDS011;50750;51.636;4.948;2022-10-26T10:11:48;2.00;;;1.00;;
59872;SDS011;50750;51.636;4.948;2022-10-26T10:14:30;1.60;;;0.90;;
59872;SDS011;50750;51.636;4.948;2022-10-26T10:16:59;2.40;;;0.90;;
59872;SDS011;50750;51.636;4.948;2022-10-26T10:19:32;2.10;;;1.00;;
59872;SDS011;50750;51.636;4.948;2022-10-26T10:24:54;2.00;;;0.90;;
59872;SDS011;50750;51.636;4.948;2022-10-26T10:27:22;3.30;;;1.10;;
59872;SDS011;50750;51.636;4.948;2022-10-26T10:29:50;2.00;;;1.10;;
59872;SDS011;50750;51.636;4.948;2022-10-26T10:34:49;2.70;;;1.00;;
59872;SDS011;50750;51.636;4.948;2022-10-26T10:37:39;2.60;;;0.90;;
59872;SDS011;50750;51.636;4.948;2022-10-26T10:42:44;2.00;;;1.10;;
59872;SDS011;50750;51.636;4.948;2022-10-26T10:45:17;2.60;;;1.30;;
59872;SDS011;50750;51.636;4.948;2022-10-26T10:48:00;1.80;;;0.80;;
59872;SDS011;50750;51.636;4.948;2022-10-26T10:50:49;2.60;;;1.10;;
59872;SDS011;50750;51.636;4.948;2022-10-26T11:02:32;2.40;;;1.10;;
59872;SDS011;50750;51.636;4.948;2022-10-26T11:11:34;1.90;;;1.00;;
59872;SDS011;50750;51.636;4.948;2022-10-26T11:16:46;2.60;;;1.30;;
59872;SDS011;50750;51.636;4.948;2022-10-26T11:21:55;3.10;;;1.20;;
59872;SDS011;50750;51.636;4.948;2022-10-26T11:27:28;2.60;;;1.10;;
59872;SDS011;50750;51.636;4.948;2022-10-26T11:30:12;2.40;;;1.20;;
59872;SDS011;50750;51.636;4.948;2022-10-26T11:32:44;2.40;;;1.20;;
59872;SDS011;50750;51.636;4.948;2022-10-26T11:37:54;2.20;;;1.20;;
59872;SDS011;50750;51.636;4.948;2022-10-26T11:40:45;2.30;;;1.30;;
59872;SDS011;50750;51.636;4.948;2022-10-26T11:43:30;2.50;;;1.30;;
59872;SDS011;50750;51.636;4.948;2022-10-26T11:46:20;2.70;;;1.30;;
59872;SDS011;50750;51.636;4.948;2022-10-26T11:48:59;2.00;;;1.20;;
59872;SDS011;50750;51.636;4.948;2022-10-26T11:51:35;2.60;;;1.40;;
59872;SDS011;50750;51.636;4.948;2022-10-26T11:54:24;2.80;;;1.30;;
59872;SDS011;50750;51.636;4.948;2022-10-26T11:56:57;2.20;;;1.30;;
59872;SDS011;50750;51.636;4.948;2022-10-26T11:59:26;2.50;;;1.30;;
59872;SDS011;50750;51.636;4.948;2022-10-26T12:01:58;3.00;;;1.70;;
59872;SDS011;50750;51.636;4.948;2022-10-26T12:04:30;3.00;;;1.50;;
59872;SDS011;50750;51.636;4.948;2022-10-26T12:07:00;2.40;;;1.40;;
59872;SDS011;50750;51.636;4.948;2022-10-26T12:09:32;2.40;;;1.40;;
59872;SDS011;50750;51.636;4.948;2022-10-26T12:12:10;2.60;;;1.20;;
59872;SDS011;50750;51.636;4.948;2022-10-26T12:14:58;2.80;;;1.30;;
59872;SDS011;50750;51.636;4.948;2022-10-26T12:17:55;2.90;;;1.60;;
59872;SDS011;50750;51.636;4.948;2022-10-26T12:21:14;3.20;;;1.20;;
59872;SDS011;50750;51.636;4.948;2022-10-26T12:23:29;2.60;;;1.20;;
59872;SDS011;50750;51.636;4.948;2022-10-26T12:34:02;3.20;;;1.40;;
59872;SDS011;50750;51.636;4.948;2022-10-26T12:41:58;2.40;;;1.10;;
59872;SDS011;50750;51.636;4.948;2022-10-26T12:53:14;2.50;;;1.20;;
59872;SDS011;50750;51.636;4.948;2022-10-26T13:08:38;1.90;;;1.10;;
59872;SDS011;50750;51.636;4.948;2022-10-26T13:13:57;2.30;;;1.20;;
59872;SDS011;50750;51.636;4.948;2022-10-26T13:16:30;1.90;;;1.00;;
59872;SDS011;50750;51.636;4.948;2022-10-26T13:18:57;2.30;;;1.00;;
59872;SDS011;50750;51.636;4.948;2022-10-26T13:21:24;2.30;;;1.30;;
59872;SDS011;50750;51.636;4.948;2022-10-26T13:26:20;2.10;;;1.10;;
59872;SDS011;50750;51.636;4.948;2022-10-26T13:28:56;2.30;;;1.00;;
59872;SDS011;50750;51.636;4.948;2022-10-26T13:41:51;2.00;;;1.00;;
59872;SDS011;50750;51.636;4.948;2022-10-26T13:44:28;3.20;;;1.10;;
59872;SDS011;50750;51.636;4.948;2022-10-26T13:47:51;2.50;;;1.00;;
59872;SDS011;50750;51.636;4.948;2022-10-26T13:49:49;1.90;;;1.00;;
59872;SDS011;50750;51.636;4.948;2022-10-26T13:52:24;2.40;;;1.10;;
59872;SDS011;50750;51.636;4.948;2022-10-26T13:55:02;2.00;;;1.10;;
59872;SDS011;50750;51.636;4.948;2022-10-26T13:57:36;2.50;;;1.20;;
59872;SDS011;50750;51.636;4.948;2022-10-26T14:00:08;1.90;;;1.00;;
59872;SDS011;50750;51.636;4.948;2022-10-26T14:02:40;2.20;;;1.00;;
59872;SDS011;50750;51.636;4.948;2022-10-26T14:05:09;2.00;;;1.10;;
59872;SDS011;50750;51.636;4.948;2022-10-26T14:07:49;2.60;;;1.00;;
59872;SDS011;50750;51.636;4.948;2022-10-26T14:12:49;1.80;;;0.90;;
59872;SDS011;50750;51.636;4.948;2022-10-26T14:15:18;2.20;;;0.90;;
59872;SDS011;50750;51.636;4.948;2022-10-26T14:17:50;2.50;;;0.90;;
59872;SDS011;50750;51.636;4.948;2022-10-26T14:20:19;2.00;;;0.90;;
59872;SDS011;50750;51.636;4.948;2022-10-26T14:22:48;1.70;;;0.80;;
59872;SDS011;50750;51.636;4.948;2022-10-26T14:25:22;2.10;;;1.30;;
59872;SDS011;50750;51.636;4.948;2022-10-26T14:27:55;1.70;;;0.90;;
59872;SDS011;50750;51.636;4.948;2022-10-26T14:30:23;2.30;;;1.00;;
59872;SDS011;50750;51.636;4.948;2022-10-26T14:32:58;1.70;;;0.90;;
59872;SDS011;50750;51.636;4.948;2022-10-26T14:35:28;2.10;;;0.90;;
59872;SDS011;50750;51.636;4.948;2022-10-26T14:38:02;2.10;;;0.90;;
59872;SDS011;50750;51.636;4.948;2022-10-26T14:40:40;2.00;;;1.10;;
59872;SDS011;50750;51.636;4.948;2022-10-26T14:43:07;2.00;;;0.90;;
59872;SDS011;50750;51.636;4.948;2022-10-26T14:45:46;2.50;;;1.10;;
59872;SDS011;50750;51.636;4.948;2022-10-26T14:48:22;2.90;;;1.00;;
59872;SDS011;50750;51.636;4.948;2022-10-26T14:53:28;3.60;;;1.00;;
59872;SDS011;50750;51.636;4.948;2022-10-26T14:56:02;1.90;;;0.90;;
59872;SDS011;50750;51.636;4.948;2022-10-26T14:58:29;2.30;;;1.00;;
59872;SDS011;50750;51.636;4.948;2022-10-26T15:03:47;2.20;;;0.90;;
59872;SDS011;50750;51.636;4.948;2022-10-26T15:06:20;3.10;;;1.00;;
59872;SDS011;50750;51.636;4.948;2022-10-26T15:08:58;1.90;;;1.10;;
59872;SDS011;50750;51.636;4.948;2022-10-26T15:11:26;2.00;;;0.90;;
59872;SDS011;50750;51.636;4.948;2022-10-26T15:13:54;1.70;;;0.90;;
59872;SDS011;50750;51.636;4.948;2022-10-26T15:16:26;2.80;;;1.00;;
59872;SDS011;50750;51.636;4.948;2022-10-26T15:18:58;2.10;;;1.00;;
59872;SDS011;50750;51.636;4.948;2022-10-26T15:21:37;1.70;;;0.70;;
59872;SDS011;50750;51.636;4.948;2022-10-26T15:26:45;2.00;;;1.10;;
59872;SDS011;50750;51.636;4.948;2022-10-26T15:32:03;2.80;;;1.00;;
59872;SDS011;50750;51.636;4.948;2022-10-26T15:34:31;3.30;;;1.10;;
59872;SDS011;50750;51.636;4.948;2022-10-26T15:36:57;2.30;;;1.10;;
59872;SDS011;50750;51.636;4.948;2022-10-26T15:39:24;2.60;;;1.10;;
59872;SDS011;50750;51.636;4.948;2022-10-26T15:41:51;2.90;;;1.00;;
59872;SDS011;50750;51.636;4.948;2022-10-26T15:44:19;2.60;;;1.00;;
59872;SDS011;50750;51.636;4.948;2022-10-26T15:46:47;2.00;;;0.90;;
59872;SDS011;50750;51.636;4.948;2022-10-26T15:49:19;2.20;;;1.00;;
59872;SDS011;50750;51.636;4.948;2022-10-26T15:51:46;2.40;;;0.90;;
59872;SDS011;50750;51.636;4.948;2022-10-26T15:54:14;1.60;;;0.80;;
59872;SDS011;50750;51.636;4.948;2022-10-26T15:56:41;2.00;;;1.00;;
59872;SDS011;50750;51.636;4.948;2022-10-26T15:59:18;2.40;;;0.90;;
59872;SDS011;50750;51.636;4.948;2022-10-26T16:01:44;1.50;;;0.80;;
59872;SDS011;50750;51.636;4.948;2022-10-26T16:04:11;2.30;;;1.00;;
59872;SDS011;50750;51.636;4.948;2022-10-26T16:06:38;2.40;;;0.90;;
59872;SDS011;50750;51.636;4.948;2022-10-26T16:09:06;1.70;;;0.90;;
59872;SDS011;50750;51.636;4.948;2022-10-26T16:11:38;3.00;;;1.10;;
59872;SDS011;50750;51.636;4.948;2022-10-26T16:14:04;1.80;;;0.90;;
59872;SDS011;50750;51.636;4.948;2022-10-26T16:16:31;1.90;;;0.90;;
59872;SDS011;50750;51.636;4.948;2022-10-26T16:18:57;2.00;;;1.00;;
59872;SDS011;50750;51.636;4.948;2022-10-26T16:21:24;2.10;;;0.80;;
59872;SDS011;50750;51.636;4.948;2022-10-26T16:23:51;2.20;;;0.80;;
59872;SDS011;50750;51.636;4.948;2022-10-26T16:26:19;1.90;;;1.00;;
59872;SDS011;50750;51.636;4.948;2022-10-26T16:28:47;2.00;;;1.30;;
59872;SDS011;50750;51.636;4.948;2022-10-26T16:31:15;1.70;;;0.80;;
59872;SDS011;50750;51.636;4.948;2022-10-26T16:33:43;2.20;;;0.90;;
59872;SDS011;50750;51.636;4.948;2022-10-26T16:36:10;1.60;;;0.80;;
59872;SDS011;50750;51.636;4.948;2022-10-26T16:38:38;1.10;;;0.70;;
59872;SDS011;50750;51.636;4.948;2022-10-26T16:41:06;1.50;;;0.80;;
59872;SDS011;50750;51.636;4.948;2022-10-26T16:43:37;2.00;;;0.70;;
59872;SDS011;50750;51.636;4.948;2022-10-26T16:46:09;2.30;;;0.90;;
59872;SDS011;50750;51.636;4.948;2022-10-26T16:48:39;2.20;;;0.80;;
59872;SDS011;50750;51.636;4.948;2022-10-26T16:51:07;1.40;;;0.70;;
59872;SDS011;50750;51.636;4.948;2022-10-26T16:53:42;1.90;;;0.90;;
59872;SDS011;50750;51.636;4.948;2022-10-26T16:56:10;1.80;;;0.90;;
59872;SDS011;50750;51.636;4.948;2022-10-26T16:58:38;1.70;;;0.80;;
59872;SDS011;50750;51.636;4.948;2022-10-26T17:01:05;2.40;;;0.80;;
59872;SDS011;50750;51.636;4.948;2022-10-26T17:03:33;1.40;;;0.70;;
59872;SDS011;50750;51.636;4.948;2022-10-26T17:06:01;2.60;;;1.00;;
59872;SDS011;50750;51.636;4.948;2022-10-26T17:08:29;1.90;;;0.80;;
59872;SDS011;50750;51.636;4.948;2022-10-26T17:11:02;1.40;;;0.80;;
59872;SDS011;50750;51.636;4.948;2022-10-26T17:13:29;1.10;;;0.70;;
59872;SDS011;50750;51.636;4.948;2022-10-26T17:16:02;1.80;;;0.90;;
59872;SDS011;50750;51.636;4.948;2022-10-26T17:18:31;1.80;;;0.90;;
59872;SDS011;50750;51.636;4.948;2022-10-26T17:20:57;1.60;;;0.70;;
59872;SDS011;50750;51.636;4.948;2022-10-26T17:23:24;2.30;;;0.80;;
59872;SDS011;50750;51.636;4.948;2022-10-26T17:25:50;1.80;;;0.80;;
59872;SDS011;50750;51.636;4.948;2022-10-26T17:28:17;1.50;;;0.90;;
59872;SDS011;50750;51.636;4.948;2022-10-26T17:30:44;1.50;;;0.90;;
59872;SDS011;50750;51.636;4.948;2022-10-26T17:33:10;1.80;;;0.90;;
59872;SDS011;50750;51.636;4.948;2022-10-26T17:35:37;2.00;;;0.80;;
59872;SDS011;50750;51.636;4.948;2022-10-26T17:38:04;1.90;;;0.90;;
59872;SDS011;50750;51.636;4.948;2022-10-26T17:40:30;1.70;;;0.80;;
59872;SDS011;50750;51.636;4.948;2022-10-26T17:42:58;2.30;;;0.90;;
59872;SDS011;50750;51.636;4.948;2022-10-26T17:45:25;1.90;;;0.80;;
59872;SDS011;50750;51.636;4.948;2022-10-26T17:47:52;1.90;;;0.80;;
59872;SDS011;50750;51.636;4.948;2022-10-26T17:50:18;1.90;;;0.90;;
59872;SDS011;50750;51.636;4.948;2022-10-26T17:52:45;1.80;;;0.90;;
59872;SDS011;50750;51.636;4.948;2022-10-26T17:55:11;2.40;;;0.90;;
59872;SDS011;50750;51.636;4.948;2022-10-26T17:57:38;1.60;;;1.00;;
59872;SDS011;50750;51.636;4.948;2022-10-26T18:00:04;2.40;;;0.90;;
59872;SDS011;50750;51.636;4.948;2022-10-26T18:02:31;2.00;;;0.90;;